Great Neck Estates, New York
Current Conditions -  °F | °C
As of 1:51 AM on Friday 28 Nov 2014 (Local Time) from KLGA Reporting Station
Clear Clear  
Wind Chill: 23°   Ceiling: Unl
Heat Index: 33°   Visibility: 10mi
Dew Point: 24°   Wind: 15mph
Humidity: 70%   Direction: 300°WNW
Pressure: 30.07"   Gusts: NA
Location:  40.786°N, 73.7291°W
Report Text: KLGA 280651Z 30013KT 10SM CLR 01/M04 A3007 RMK AO2 SLP183 T00061044
Loading
Personal Weather Stations






























Interactive Weather Map New forecast layout! Learn more

10-Day Weather Forecast

Advertisements
Track Severe Weather on mobile